Terminal Aerodrome Forecast
Issued by NWS

Home | Current Version | Previous Version | Graphics & Text | Print | Product List | Glossary On
Versions: 1 2 3 4 5 6 7 8 9 10 11 12 13
000
FTUS43 KICT 181045 AAB
TAFRSL
TAF AMD
KRSL 181045Z 1811/1906 35026G34KT P6SM VCSH BKN015
     FM181300 34024G34KT P6SM SCT040
     FM190100 31009KT P6SM SKC=

USA.gov is the U.S. government's official web portal to all federal, state and local government web resources and services.